createdAt,value
2018-06-23T00:01:02.040Z,0.60
2018-06-23T00:03:31.299Z,0.70
2018-06-23T00:05:59.624Z,0.77
2018-06-23T00:08:27.855Z,0.60
2018-06-23T00:10:56.167Z,0.80
2018-06-23T00:13:24.415Z,0.60
2018-06-23T00:15:52.759Z,1.07
2018-06-23T00:18:21.987Z,0.50
2018-06-23T00:20:50.297Z,0.77
2018-06-23T00:23:19.579Z,0.57
2018-06-23T00:25:54.196Z,0.70
2018-06-23T00:28:22.468Z,0.73
2018-06-23T00:30:50.760Z,0.63
2018-06-23T00:33:19.019Z,0.70
2018-06-23T00:35:47.323Z,0.63
2018-06-23T00:38:15.568Z,1.07
2018-06-23T00:40:43.783Z,0.70
2018-06-23T00:43:12.034Z,0.50
2018-06-23T00:45:40.336Z,0.90
2018-06-23T00:48:09.610Z,1.00
2018-06-23T00:50:37.917Z,0.47
2018-06-23T00:53:06.177Z,0.93
2018-06-23T00:55:34.498Z,0.70
2018-06-23T00:58:02.711Z,1.40
2018-06-23T01:00:31.010Z,0.87
2018-06-23T01:02:59.261Z,0.87
2018-06-23T01:05:27.579Z,0.57
2018-06-23T01:07:55.827Z,1.07
2018-06-23T01:10:24.122Z,1.07
2018-06-23T01:12:52.383Z,0.77
2018-06-23T01:15:20.731Z,0.60
2018-06-23T01:17:49.142Z,1.23
2018-06-23T01:20:17.375Z,0.70
2018-06-23T01:22:45.714Z,0.50
2018-06-23T01:25:14.010Z,0.93
2018-06-23T01:27:42.252Z,0.90
2018-06-23T01:30:10.552Z,0.53
2018-06-23T01:32:38.773Z,1.07
2018-06-23T01:35:07.117Z,0.90
2018-06-23T01:37:35.388Z,0.80
2018-06-23T01:40:03.671Z,1.13
2018-06-23T01:42:31.935Z,0.80
2018-06-23T01:45:00.186Z,0.80
2018-06-23T01:47:28.501Z,0.97
2018-06-23T01:49:56.734Z,1.20
2018-06-23T01:52:25.022Z,1.27
2018-06-23T01:54:53.315Z,1.17
2018-06-23T01:57:21.644Z,0.70
2018-06-23T01:59:49.972Z,0.90
2018-06-23T02:02:18.278Z,1.20
2018-06-23T02:04:46.541Z,0.70
2018-06-23T02:07:14.786Z,0.70
2018-06-23T02:09:43.047Z,1.03
2018-06-23T02:12:11.396Z,0.67
2018-06-23T02:14:45.150Z,1.33
2018-06-23T02:17:19.010Z,1.43
2018-06-23T02:19:52.930Z,1.00
2018-06-23T02:22:26.826Z,0.70
2018-06-23T02:25:00.654Z,0.77
2018-06-23T02:27:34.597Z,1.00
2018-06-23T02:30:08.263Z,1.10
2018-06-23T02:32:41.933Z,0.67
2018-06-23T02:35:10.205Z,1.30
2018-06-23T02:37:39.520Z,1.27
2018-06-23T02:40:08.167Z,1.47
2018-06-23T02:42:36.884Z,0.80
2018-06-23T02:46:30.347Z,1.13
2018-06-23T02:48:58.603Z,0.77
2018-06-23T02:51:26.913Z,1.63
2018-06-23T02:53:55.158Z,0.80
2018-06-23T02:56:23.468Z,1.43
2018-06-23T02:58:51.823Z,2.20
2018-06-23T03:01:20.108Z,1.33
2018-06-23T03:03:48.384Z,1.07
2018-06-23T03:06:16.661Z,1.00
2018-06-23T03:08:44.910Z,1.10
2018-06-23T03:11:13.224Z,0.80
2018-06-23T03:13:41.530Z,0.90
2018-06-23T03:16:09.935Z,0.70
2018-06-23T03:18:38.256Z,1.63
2018-06-23T03:21:06.561Z,1.23
2018-06-23T03:23:34.910Z,1.60
2018-06-23T03:26:03.186Z,1.57
2018-06-23T03:28:31.474Z,1.00
2018-06-23T03:30:59.726Z,1.23
2018-06-23T03:33:27.990Z,0.73
2018-06-23T03:35:56.293Z,1.30
2018-06-23T03:38:24.567Z,1.10
2018-06-23T03:40:52.858Z,0.83
2018-06-23T03:43:20.922Z,0.87
2018-06-23T03:45:49.592Z,1.30
2018-06-23T03:48:17.886Z,0.80
2018-06-23T03:50:46.145Z,1.67
2018-06-23T03:53:14.748Z,1.13
2018-06-23T03:55:43.060Z,1.17
2018-06-23T03:58:11.428Z,0.97
2018-06-23T04:00:43.946Z,1.40
2018-06-23T04:03:12.235Z,0.90
2018-06-23T04:05:44.718Z,0.90
2018-06-23T04:08:13.092Z,1.13
2018-06-23T04:10:42.512Z,0.50
2018-06-23T04:13:10.819Z,1.37
2018-06-23T04:15:39.071Z,1.03
2018-06-23T04:18:07.358Z,0.97
2018-06-23T04:20:35.410Z,1.17
2018-06-23T04:23:03.721Z,1.40
2018-06-23T04:25:31.963Z,1.27
2018-06-23T04:28:00.338Z,0.90
2018-06-23T04:30:28.687Z,1.27
2018-06-23T04:32:57.019Z,1.10
2018-06-23T04:35:25.294Z,1.17
2018-06-23T04:37:53.595Z,1.10
2018-06-23T04:40:21.811Z,0.77
2018-06-23T04:42:50.211Z,0.70
2018-06-23T04:45:18.485Z,0.60
2018-06-23T04:47:46.837Z,3.40
2018-06-23T04:50:15.134Z,0.87
2018-06-23T04:52:43.444Z,0.73
2018-06-23T04:55:11.694Z,1.50
2018-06-23T04:57:39.977Z,1.63
2018-06-23T05:00:08.269Z,0.93
2018-06-23T05:02:36.560Z,1.20
2018-06-23T05:05:04.601Z,0.80
2018-06-23T05:07:32.892Z,1.27
2018-06-23T05:10:00.941Z,1.30
2018-06-23T05:12:29.319Z,1.77
2018-06-23T05:14:57.531Z,1.73
2018-06-23T05:17:25.809Z,0.87
2018-06-23T05:19:54.145Z,1.30
2018-06-23T05:22:22.443Z,1.10
2018-06-23T05:24:51.120Z,0.97
2018-06-23T05:27:19.429Z,1.27
2018-06-23T05:29:47.672Z,0.70
2018-06-23T05:32:16.024Z,1.00
2018-06-23T05:34:44.350Z,1.03
2018-06-23T05:37:12.645Z,1.30
2018-06-23T05:39:40.901Z,0.70
2018-06-23T05:42:09.187Z,1.23
2018-06-23T05:44:37.443Z,0.93
2018-06-23T05:47:05.739Z,1.17
2018-06-23T05:49:34.004Z,2.23
2018-06-23T05:52:02.290Z,1.00
2018-06-23T05:54:30.548Z,1.13
2018-06-23T05:56:58.825Z,1.17
2018-06-23T05:59:27.125Z,1.07
2018-06-23T06:01:55.396Z,0.77
2018-06-23T06:04:23.686Z,1.40
2018-06-23T06:06:51.908Z,1.23
2018-06-23T06:09:20.309Z,0.80
2018-06-23T06:11:48.639Z,0.80
2018-06-23T06:14:16.905Z,0.93
2018-06-23T06:17:31.939Z,1.57
2018-06-23T06:20:02.483Z,1.00
2018-06-23T06:22:32.040Z,1.63
2018-06-23T06:25:00.399Z,1.00
2018-06-23T06:27:29.432Z,0.80
2018-06-23T06:29:59.258Z,1.10
2018-06-23T06:32:28.007Z,0.67
2018-06-23T06:34:56.394Z,1.23
2018-06-23T06:37:24.735Z,1.57
2018-06-23T06:39:53.061Z,1.30
2018-06-23T06:42:21.336Z,0.87
2018-06-23T06:44:49.664Z,1.00
2018-06-23T06:47:18.935Z,0.80
2018-06-23T06:49:47.361Z,0.93
2018-06-23T06:52:15.642Z,1.10
2018-06-23T06:54:44.176Z,1.10
2018-06-23T06:57:12.412Z,0.93
2018-06-23T06:59:40.802Z,1.20
2018-06-23T07:02:09.419Z,0.80
2018-06-23T07:04:37.766Z,0.87
2018-06-23T07:07:06.132Z,1.43
2018-06-23T07:09:34.465Z,0.70
2018-06-23T07:12:02.711Z,0.97
2018-06-23T07:14:31.058Z,0.90
2018-06-23T07:16:59.290Z,0.70
2018-06-23T07:19:27.613Z,0.80
2018-06-23T07:21:55.879Z,0.53
2018-06-23T07:24:24.155Z,0.90
2018-06-23T07:26:52.385Z,0.43
2018-06-23T07:29:20.693Z,0.70
2018-06-23T07:31:48.971Z,0.40
2018-06-23T07:34:17.267Z,0.70
2018-06-23T07:36:45.648Z,0.43
2018-06-23T07:39:13.893Z,0.73
2018-06-23T07:41:42.181Z,0.40
2018-06-23T07:44:10.487Z,1.43
2018-06-23T07:46:38.773Z,0.50
2018-06-23T07:49:07.124Z,0.77
2018-06-23T07:51:35.179Z,0.73
2018-06-23T07:54:03.494Z,0.60
2018-06-23T07:56:31.770Z,0.80
2018-06-23T07:58:59.987Z,1.27
2018-06-23T08:01:28.314Z,0.60
2018-06-23T08:03:56.574Z,0.70
2018-06-23T08:06:24.875Z,0.77
2018-06-23T08:08:53.137Z,0.63
2018-06-23T08:11:21.425Z,0.60
2018-06-23T08:13:49.674Z,0.73
2018-06-23T08:16:17.925Z,0.87
2018-06-23T08:18:46.268Z,0.40
2018-06-23T08:21:14.596Z,0.70
2018-06-23T08:23:42.888Z,0.40
2018-06-23T08:26:11.148Z,0.73
2018-06-23T08:28:39.429Z,0.60
2018-06-23T08:31:07.708Z,0.50
2018-06-23T08:33:36.709Z,0.73
2018-06-23T08:36:05.987Z,0.60
2018-06-23T08:38:34.283Z,0.90
2018-06-23T08:41:02.550Z,0.67
2018-06-23T08:43:34.278Z,0.90
2018-06-23T08:46:02.473Z,0.70
2018-06-23T08:48:30.803Z,0.70
2018-06-23T08:50:58.832Z,0.50
2018-06-23T08:53:27.108Z,0.70
2018-06-23T08:55:55.354Z,0.50
2018-06-23T08:58:23.652Z,0.50
2018-06-23T09:00:51.936Z,0.50
2018-06-23T09:03:20.232Z,0.33
2018-06-23T09:05:48.602Z,0.40
2018-06-23T09:08:16.861Z,0.77
2018-06-23T09:10:45.175Z,0.33
2018-06-23T09:13:13.416Z,0.50
2018-06-23T09:15:41.726Z,0.50
2018-06-23T09:18:09.975Z,0.50
2018-06-23T09:20:38.283Z,0.40
2018-06-23T09:23:06.534Z,0.40
2018-06-23T09:25:34.881Z,0.57
2018-06-23T09:28:03.073Z,0.47
2018-06-23T09:30:31.409Z,0.20
2018-06-23T09:32:59.439Z,0.30
2018-06-23T09:35:27.764Z,0.10
2018-06-23T09:37:56.100Z,0.40
2018-06-23T09:40:24.400Z,0.25
2018-06-23T09:42:52.681Z,0.45
2018-06-23T09:45:20.764Z,0.30
2018-06-23T09:47:48.811Z,0.40
2018-06-23T09:50:17.114Z,0.40
2018-06-23T09:52:45.374Z,0.33
2018-06-23T09:55:13.649Z,0.28
2018-06-23T09:57:41.918Z,0.30
2018-06-23T10:00:10.200Z,0.47
2018-06-23T10:02:38.454Z,0.33
2018-06-23T10:05:06.797Z,0.50
2018-06-23T10:07:35.109Z,0.50
2018-06-23T10:10:03.421Z,0.50
2018-06-23T10:12:31.766Z,0.50
2018-06-23T10:15:00.071Z,0.28
2018-06-23T10:17:28.320Z,0.50
2018-06-23T10:19:56.617Z,0.75
2018-06-23T10:22:24.869Z,0.47
2018-06-23T10:24:53.178Z,0.30
2018-06-23T10:28:50.710Z,0.75
2018-06-23T10:31:18.993Z,0.47
2018-06-23T10:33:47.292Z,0.30
2018-06-23T10:36:15.668Z,0.40
2018-06-23T10:38:44.010Z,0.80
2018-06-23T10:41:12.322Z,0.50
2018-06-23T10:43:40.571Z,0.40
2018-06-23T10:46:08.888Z,0.40
2018-06-23T10:48:37.152Z,0.53
2018-06-23T10:51:05.443Z,0.40
2018-06-23T10:53:33.691Z,0.30
2018-06-23T10:56:01.987Z,0.42
2018-06-23T10:58:30.242Z,0.40
2018-06-23T11:00:58.577Z,0.30
2018-06-23T11:03:26.824Z,0.50
2018-06-23T11:05:55.138Z,0.33
2018-06-23T11:08:23.506Z,0.37
2018-06-23T11:10:51.869Z,0.45
2018-06-23T11:13:20.227Z,0.50
2018-06-23T11:15:48.563Z,0.50
2018-06-23T11:18:16.912Z,0.37
2018-06-23T11:20:45.226Z,0.42
2018-06-23T11:23:13.569Z,0.28
2018-06-23T11:25:41.818Z,0.90
2018-06-23T11:28:10.128Z,0.37
2018-06-23T11:30:38.428Z,0.40
2018-06-23T11:33:06.773Z,0.42
2018-06-23T11:35:35.050Z,0.20
2018-06-23T11:38:03.304Z,0.35
2018-06-23T11:40:31.649Z,0.50
2018-06-23T11:43:00.026Z,0.57
2018-06-23T11:45:28.362Z,0.30
2018-06-23T11:47:56.627Z,0.68
2018-06-23T11:50:24.911Z,0.25
2018-06-23T11:52:53.172Z,0.62
2018-06-23T11:55:21.481Z,0.35
2018-06-23T11:57:49.766Z,0.55
2018-06-23T12:00:18.027Z,0.20
2018-06-23T12:02:46.280Z,0.40
2018-06-23T12:05:14.579Z,0.77
2018-06-23T12:07:42.842Z,0.40
2018-06-23T12:10:11.152Z,0.40
2018-06-23T12:12:39.486Z,0.60
2018-06-23T12:15:07.789Z,0.68
2018-06-23T12:17:36.048Z,0.20
2018-06-23T12:20:04.675Z,0.20
2018-06-23T12:22:32.930Z,0.37
2018-06-23T12:25:01.212Z,0.57
2018-06-23T12:27:29.505Z,0.20
2018-06-23T12:29:57.767Z,0.20
2018-06-23T12:32:26.079Z,0.30
2018-06-23T12:34:54.390Z,0.37
2018-06-23T12:37:22.685Z,0.20
2018-06-23T12:39:51.016Z,0.30
2018-06-23T12:42:19.358Z,0.25
2018-06-23T12:44:47.638Z,0.20
2018-06-23T12:47:15.906Z,0.20
2018-06-23T12:49:44.183Z,0.35
2018-06-23T12:52:12.459Z,0.30
2018-06-23T12:54:40.699Z,0.47
2018-06-23T12:57:09.027Z,0.20
2018-06-23T12:59:37.251Z,0.47
2018-06-23T13:02:05.577Z,0.20
2018-06-23T13:04:33.819Z,0.50
2018-06-23T13:07:02.110Z,0.37
2018-06-23T13:09:30.379Z,0.30
2018-06-23T13:11:58.703Z,0.20
2018-06-23T13:14:26.935Z,0.20
2018-06-23T13:16:55.221Z,0.20
2018-06-23T13:19:23.492Z,0.40
2018-06-23T13:21:51.781Z,0.47
2018-06-23T13:24:20.042Z,0.30
2018-06-23T13:26:48.391Z,0.30
2018-06-23T13:29:16.617Z,0.42
2018-06-23T13:31:44.885Z,0.35
2018-06-23T13:34:13.160Z,0.33
2018-06-23T13:36:41.442Z,0.33
2018-06-23T13:39:10.224Z,0.20
2018-06-23T13:41:38.520Z,0.23
2018-06-23T13:44:06.758Z,0.33
2018-06-23T13:46:35.076Z,0.30
2018-06-23T13:49:03.123Z,0.60
2018-06-23T13:51:31.416Z,0.67
2018-06-23T13:53:59.445Z,0.50
2018-06-23T13:56:27.784Z,0.50
2018-06-23T13:58:56.039Z,0.40
2018-06-23T14:01:24.361Z,0.30
2018-06-23T14:03:52.666Z,0.50
2018-06-23T14:06:20.989Z,0.60
2018-06-23T14:08:49.255Z,0.30
2018-06-23T14:11:17.536Z,0.30
2018-06-23T14:13:45.649Z,0.43
2018-06-23T14:16:13.971Z,0.70
2018-06-23T14:18:42.263Z,0.30
2018-06-23T14:21:10.564Z,0.50
2018-06-23T14:23:38.780Z,0.50
2018-06-23T14:26:07.092Z,0.40
2018-06-23T14:28:35.371Z,0.50
2018-06-23T14:31:03.650Z,0.37
2018-06-23T14:33:31.914Z,0.30
2018-06-23T14:36:00.160Z,0.40
2018-06-23T14:38:28.503Z,0.53
2018-06-23T14:40:56.827Z,0.47
2018-06-23T14:43:25.135Z,0.90
2018-06-23T14:45:53.390Z,0.50
2018-06-23T14:48:21.673Z,0.70
2018-06-23T14:50:49.967Z,0.50
2018-06-23T14:53:18.230Z,0.80
2018-06-23T14:55:46.547Z,0.50
2018-06-23T14:58:14.950Z,0.37
2018-06-23T15:00:43.266Z,0.40
2018-06-23T15:03:11.546Z,0.53
2018-06-23T15:05:39.881Z,0.70
2018-06-23T15:08:19.654Z,0.37
2018-06-23T15:10:59.236Z,0.40
2018-06-23T15:13:27.512Z,0.37
2018-06-23T15:15:55.865Z,0.60
2018-06-23T15:18:24.157Z,0.40
2018-06-23T15:20:52.410Z,0.30
2018-06-23T15:23:20.687Z,0.77
2018-06-23T15:25:48.945Z,0.60
2018-06-23T15:28:17.257Z,0.70
2018-06-23T15:30:45.552Z,0.40
2018-06-23T15:33:13.847Z,0.57
2018-06-23T15:35:42.191Z,0.70
2018-06-23T15:38:10.527Z,1.07
2018-06-23T15:40:38.831Z,0.60
2018-06-23T15:43:07.131Z,0.50
2018-06-23T15:45:35.390Z,0.53
2018-06-23T15:48:03.670Z,0.97
2018-06-23T15:50:31.923Z,0.60
2018-06-23T15:53:00.236Z,0.50
2018-06-23T15:55:28.478Z,0.50
2018-06-23T15:57:56.805Z,1.23
2018-06-23T16:00:25.055Z,0.70
2018-06-23T16:02:53.350Z,0.67
2018-06-23T16:05:21.586Z,0.83
2018-06-23T16:07:49.930Z,0.77
2018-06-23T16:10:22.287Z,0.50
2018-06-23T16:12:50.673Z,0.50
2018-06-23T16:15:18.957Z,1.27
2018-06-23T16:17:47.432Z,0.70
2018-06-23T16:20:18.757Z,0.87
2018-06-23T16:22:47.666Z,0.80
2018-06-23T16:25:16.406Z,0.70
2018-06-23T16:27:44.672Z,0.43
2018-06-23T16:30:12.964Z,0.67
2018-06-23T16:32:41.251Z,0.70
2018-06-23T16:35:09.718Z,0.40
2018-06-23T16:37:37.903Z,1.10
2018-06-23T16:40:06.202Z,1.20
2018-06-23T16:42:34.476Z,0.60
2018-06-23T16:45:02.727Z,0.80
2018-06-23T16:47:31.028Z,1.00
2018-06-23T16:49:59.329Z,0.83
2018-06-23T16:52:27.633Z,0.70
2018-06-23T16:54:55.851Z,0.90
2018-06-23T16:57:24.137Z,0.80
2018-06-23T16:59:52.370Z,0.93
2018-06-23T17:02:21.598Z,0.63
2018-06-23T17:04:49.883Z,0.60
2018-06-23T17:07:18.154Z,0.90
2018-06-23T17:09:46.463Z,1.07
2018-06-23T17:12:15.003Z,0.70
2018-06-23T17:14:43.311Z,1.10
2018-06-23T17:17:11.558Z,0.83
2018-06-23T17:19:39.972Z,0.63
2018-06-23T17:22:08.210Z,0.90
2018-06-23T17:24:37.544Z,0.90
2018-06-23T17:27:05.875Z,1.23
2018-06-23T17:29:34.186Z,0.70
2018-06-23T17:32:02.466Z,1.37
2018-06-23T17:34:30.757Z,1.10
2018-06-23T17:36:58.991Z,1.33
2018-06-23T17:39:27.287Z,0.50
2018-06-23T17:41:55.650Z,0.70
2018-06-23T17:44:23.968Z,0.70
2018-06-23T17:46:53.254Z,0.60
2018-06-23T17:49:21.551Z,1.13
2018-06-23T17:51:49.803Z,0.57
2018-06-23T17:54:18.101Z,0.80
2018-06-23T17:56:46.366Z,0.70
2018-06-23T17:59:14.674Z,0.97
2018-06-23T18:01:42.957Z,0.60
2018-06-23T18:04:11.207Z,0.70
2018-06-23T18:06:39.475Z,0.83
2018-06-23T18:09:08.670Z,0.70
2018-06-23T18:11:36.974Z,1.17
2018-06-23T18:14:06.048Z,1.20
2018-06-23T18:16:34.309Z,0.50
2018-06-23T18:19:02.615Z,1.00
2018-06-23T18:21:30.876Z,0.70
2018-06-23T18:23:59.159Z,0.70
2018-06-23T18:26:27.432Z,1.00
2018-06-23T18:28:55.735Z,0.63
2018-06-23T18:31:23.959Z,0.87
2018-06-23T18:33:52.273Z,1.00
2018-06-23T18:36:20.518Z,0.80
2018-06-23T18:38:48.827Z,0.97
2018-06-23T18:41:17.165Z,0.60
2018-06-23T18:43:45.497Z,0.80
2018-06-23T18:46:13.744Z,0.67
2018-06-23T18:48:42.043Z,0.90
2018-06-23T18:51:10.282Z,0.90
2018-06-23T18:53:38.604Z,0.90
2018-06-23T18:56:06.860Z,0.50
2018-06-23T18:58:35.162Z,0.80
2018-06-23T19:01:03.423Z,0.50
2018-06-23T19:03:31.697Z,0.70
2018-06-23T19:05:59.966Z,0.90
2018-06-23T19:08:28.303Z,0.60
2018-06-23T19:10:56.612Z,0.87
2018-06-23T19:13:24.908Z,1.10
2018-06-23T19:15:53.161Z,0.80
2018-06-23T19:18:21.481Z,1.00
2018-06-23T19:20:49.745Z,0.80
2018-06-23T19:23:18.039Z,0.73
2018-06-23T19:25:46.301Z,0.60
2018-06-23T19:28:14.546Z,0.33
2018-06-23T19:30:42.844Z,0.50
2018-06-23T19:33:11.198Z,0.70
2018-06-23T19:35:39.527Z,0.80
2018-06-23T19:38:07.867Z,0.53
2018-06-23T19:40:36.179Z,0.60
2018-06-23T19:43:04.423Z,0.60
2018-06-23T19:45:32.761Z,0.57
2018-06-23T19:48:01.067Z,0.40
2018-06-23T19:50:29.362Z,0.53
2018-06-23T19:52:57.658Z,0.60
2018-06-23T19:55:25.938Z,0.53
2018-06-23T19:57:54.210Z,1.27
2018-06-23T20:00:22.524Z,1.00
2018-06-23T20:02:50.814Z,0.80
2018-06-23T20:05:19.180Z,0.77
2018-06-23T20:07:47.512Z,0.60
2018-06-23T20:10:15.749Z,0.60
2018-06-23T20:12:44.061Z,1.87
2018-06-23T20:15:12.362Z,0.97
2018-06-23T20:17:40.730Z,0.60
2018-06-23T20:20:09.064Z,0.60
2018-06-23T20:22:37.359Z,0.57
2018-06-23T20:25:05.758Z,0.40
2018-06-23T20:27:34.010Z,0.47
2018-06-23T20:30:02.321Z,0.50
2018-06-23T20:32:30.600Z,0.60
2018-06-23T20:34:58.895Z,0.60
2018-06-23T20:37:27.158Z,0.60
2018-06-23T20:39:55.442Z,0.50
2018-06-23T20:42:23.793Z,1.70
2018-06-23T20:44:52.127Z,0.40
2018-06-23T20:47:20.457Z,0.50
2018-06-23T20:49:48.755Z,0.83
2018-06-23T20:52:17.015Z,0.60
2018-06-23T20:54:45.320Z,0.70
2018-06-23T20:57:13.561Z,0.40
2018-06-23T20:59:41.856Z,0.67
2018-06-23T21:02:10.138Z,0.80
2018-06-23T21:04:38.440Z,0.50
2018-06-23T21:07:06.901Z,0.50
2018-06-23T21:09:34.979Z,0.40
2018-06-23T21:12:03.345Z,0.47
2018-06-23T21:14:31.634Z,0.50
2018-06-23T21:16:59.866Z,0.37
2018-06-23T21:19:28.150Z,1.03
2018-06-23T21:21:56.442Z,0.90
2018-06-23T21:24:24.753Z,1.00
2018-06-23T21:26:52.991Z,0.50
2018-06-23T21:29:21.344Z,0.60
2018-06-23T21:31:49.686Z,0.57
2018-06-23T21:34:17.940Z,0.40
2018-06-23T21:36:46.259Z,0.47
2018-06-23T21:39:14.586Z,0.57
2018-06-23T21:41:42.885Z,0.50
2018-06-23T21:44:11.145Z,0.30
2018-06-23T21:46:39.430Z,0.80
2018-06-23T21:49:07.709Z,0.40
2018-06-23T21:51:35.982Z,0.60
2018-06-23T21:54:04.337Z,0.43
2018-06-23T21:59:51.706Z,0.60
2018-06-23T22:02:19.993Z,1.00
2018-06-23T22:04:48.383Z,0.73
2018-06-23T22:07:17.639Z,0.63
2018-06-23T22:09:45.993Z,0.70
2018-06-23T22:12:14.339Z,0.70
2018-06-23T22:14:42.598Z,0.30
2018-06-23T22:17:10.936Z,0.57
2018-06-23T22:19:39.278Z,0.70
2018-06-23T22:22:07.590Z,0.50
2018-06-23T22:24:36.002Z,0.50
2018-06-23T22:27:04.332Z,0.60
2018-06-23T22:29:32.666Z,0.60
2018-06-23T22:32:00.981Z,0.50
2018-06-23T22:34:29.328Z,0.63
2018-06-23T22:36:57.792Z,0.57
2018-06-23T22:39:26.077Z,1.17
2018-06-23T22:41:54.375Z,0.50
2018-06-23T22:44:22.632Z,0.57
2018-06-23T22:46:50.928Z,0.70
2018-06-23T22:49:19.205Z,0.50
2018-06-23T22:51:47.459Z,1.10
2018-06-23T22:54:15.781Z,0.97
2018-06-23T22:56:44.104Z,1.13
2018-06-23T22:59:12.346Z,1.20
2018-06-23T23:01:40.687Z,1.43
2018-06-23T23:04:08.987Z,1.83
2018-06-23T23:06:37.470Z,1.77
2018-06-23T23:09:07.479Z,2.30
2018-06-23T23:11:35.863Z,2.67
2018-06-23T23:14:04.716Z,2.00
2018-06-23T23:16:35.191Z,2.07
2018-06-23T23:19:03.529Z,2.47
2018-06-23T23:21:31.807Z,2.40
2018-06-23T23:24:00.095Z,2.23
2018-06-23T23:26:28.355Z,2.27
2018-06-23T23:28:56.656Z,2.33
2018-06-23T23:31:24.901Z,2.30
2018-06-23T23:33:53.300Z,2.03
2018-06-23T23:36:21.576Z,2.57
2018-06-23T23:38:49.856Z,2.63
2018-06-23T23:41:18.116Z,2.37
2018-06-23T23:43:46.431Z,2.20
2018-06-23T23:46:14.680Z,2.33
2018-06-23T23:48:43.067Z,1.77
2018-06-23T23:51:11.313Z,2.33
2018-06-23T23:53:39.594Z,2.83
2018-06-23T23:56:07.894Z,2.03
2018-06-23T23:58:36.138Z,2.40
